PAIK

Details ICAO PAIK (IAN)
Name Kiana B BAKER MEM
Region USA (Alaska)
Timezone America/Anchorage (UTC-9.0)
Plans Departing 0
Arriving 0
Stats Elevation 166 ft / 51 m (AMSL)
Location 66.975955° -160.436534°
Runways 1
Magnetic Variation 12.563° E
Sunrise 2017-12-12 21:35:40 UTC / 2017-12-12 12:35:40 Local
Sunset 2017-12-12 23:38:33 UTC / 2017-12-12 14:38:33 Local
Advertisement - Login to hide

Runways

ID Width Length Bearing (true) Bearing (mag) Surface Threshold Offset Overrun Length
06 98 ft / 30 m 3,388 ft / 1,033 m 81.92° 69.36° Gravel 0 ft / 0 m 299 ft / 91 m
24 98 ft / 30 m 3,388 ft / 1,033 m 261.94° 249.38° Gravel 0 ft / 0 m 299 ft / 91 m

Map

Weather


0- 5 10 15 20 25 30 35+ Temperature / ° C

Clouds and Precipitation
Forecast for 2017-12-12 12:00 UTC. Updated 2 hours ago

Ground ~20,000 ft ~40,000 ft Winds

METAR

PAIK 121056Z AUTO 00000KT 9SM -SN OVC011 M05/M06 A2955 RMK AO2 SNB24 SLP010 P0000 T10501061 FZRANO

TAF

Not found

Frequencies

Recorded 119.02 MHz AWOS-3
Approach 119.20 MHz Anchorage ARTCC
Unicom 122.70 MHz CTAF
Warning: Do not use this data for real-world aviation or navigation. No guarantee of current accuracy is given.